Time;durP1;ratioP1;P1;durP2;ratioP2;P2;SDS_P1;SDS_P2;PMS_P1;PMS_P2;Temp;Humidity;BMP_temperature;BMP_pressure;BME280_temperature;BME280_humidity;BME280_pressure;Samples;Min_cycle;Max_cycle;Signal;HPM_P1;HPM_P2
2022/06/13 00:01:19;;;;;;;5.40;4.97;;;;;;;14.96;100.00;63543.91;5026264;28;20218;-76
2022/06/13 00:03:47;;;;;;;5.53;5.03;;;;;;;14.95;100.00;63542.84;5032142;28;20229;-76
2022/06/13 00:06:14;;;;;;;8.93;5.40;;;;;;;14.95;100.00;63540.28;5030281;28;20265;-76
2022/06/13 00:08:41;;;;;;;5.53;5.05;;;;;;;14.90;100.00;63535.09;5029602;28;20199;-75
2022/06/13 00:11:11;;;;;;;5.53;5.03;;;;;;;14.92;100.00;63542.81;5028687;28;20230;-75
2022/06/13 00:13:38;;;;;;;4.82;4.50;;;;;;;14.87;100.00;63535.06;5030532;28;20226;-75
2022/06/13 00:16:06;;;;;;;5.03;4.72;;;;;;;14.89;100.00;63537.13;5031619;28;20233;-75
2022/06/13 00:18:34;;;;;;;5.18;4.60;;;;;;;14.89;100.00;63534.06;5031260;28;20205;-76
2022/06/13 00:21:02;;;;;;;4.82;4.45;;;;;;;14.85;100.00;63532.97;5027357;28;20219;-76
2022/06/13 00:23:29;;;;;;;4.22;3.92;;;;;;;14.87;100.00;63537.09;5026306;28;20234;-75
2022/06/13 00:25:56;;;;;;;5.65;4.45;;;;;;;14.84;100.00;63531.44;5025699;28;20224;-75
2022/06/13 00:28:23;;;;;;;7.00;4.20;;;;;;;14.87;100.00;63535.06;5026201;28;20226;-77
2022/06/13 00:30:50;;;;;;;7.50;4.88;;;;;;;14.88;100.00;63540.69;5025722;28;20225;-76
2022/06/13 00:33:17;;;;;;;7.50;4.65;;;;;;;14.87;100.00;63531.97;5025571;28;20258;-75
2022/06/13 00:35:45;;;;;;;4.65;4.32;;;;;;;14.83;100.00;63530.91;5025743;28;20282;-76
2022/06/13 00:38:11;;;;;;;5.40;4.55;;;;;;;14.84;100.00;63531.44;5026023;28;20500;-75
2022/06/13 00:40:38;;;;;;;5.28;4.88;;;;;;;14.81;100.00;63526.25;5025718;28;20280;-76
2022/06/13 00:43:06;;;;;;;4.18;3.97;;;;;;;14.79;100.00;63526.22;5025373;28;20242;-75
2022/06/13 00:45:35;;;;;;;5.55;5.05;;;;;;;14.80;100.00;63527.25;5025281;28;20253;-76
2022/06/13 00:48:02;;;;;;;5.25;4.78;;;;;;;14.74;100.00;63521.53;5025698;28;20221;-76
2022/06/13 00:50:32;;;;;;;5.90;4.53;;;;;;;14.78;100.00;63525.72;5025268;28;20226;-75
2022/06/13 00:53:05;;;;;;;5.15;4.85;;;;;;;14.75;100.00;63522.59;5025344;28;20241;-75
2022/06/13 00:55:37;;;;;;;6.47;5.25;;;;;;;14.78;100.00;63525.72;5025466;28;20257;-76
2022/06/13 00:58:05;;;;;;;5.22;4.82;;;;;;;14.76;100.00;63523.63;5025011;28;20213;-76
2022/06/13 01:00:35;;;;;;;5.75;5.20;;;;;;;14.76;100.00;63518.50;5025041;28;20241;-75
2022/06/13 01:03:03;;;;;;;5.00;4.70;;;;;;;14.75;100.00;63516.94;5024826;28;20230;-75
2022/06/13 01:05:34;;;;;;;7.47;4.82;;;;;;;14.77;100.00;63522.09;5024940;28;20222;-76
2022/06/13 01:08:05;;;;;;;5.03;4.63;;;;;;;14.77;100.00;63522.09;5024740;28;20227;-75
2022/06/13 01:13:17;;;;;;;6.03;5.18;;;;;;;14.82;100.00;63532.41;5004708;28;20187;-75
2022/06/13 01:15:58;;;;;;;5.30;4.90;;;;;;;14.87;100.00;63535.06;5005391;28;20591;-76
2022/06/13 01:18:40;;;;;;;5.90;5.32;;;;;;;14.85;100.00;63529.91;5005400;28;20199;-75
2022/06/13 01:21:15;;;;;;;6.18;5.63;;;;;;;14.85;100.00;63535.56;5005090;28;20219;-76
2022/06/13 01:24:32;;;;;;;5.28;4.88;;;;;;;14.86;100.00;63534.00;5004898;28;20235;-75
2022/06/13 01:27:41;;;;;;;9.25;4.53;;;;;;;14.85;100.00;63535.56;5005069;28;20219;-76
2022/06/13 01:30:37;;;;;;;5.50;5.10;;;;;;;14.87;100.00;63531.97;5005569;28;20419;-76
2022/06/13 01:33:15;;;;;;;5.55;5.05;;;;;;;14.85;100.00;63530.41;5020407;28;20203;-76
2022/06/13 01:35:53;;;;;;;5.57;4.88;;;;;;;14.80;100.00;63525.22;5004944;28;20223;-75
2022/06/13 01:38:38;;;;;;;5.70;5.20;;;;;;;14.82;100.00;63527.28;5004820;28;20243;-76
2022/06/13 01:41:13;;;;;;;7.45;5.55;;;;;;;14.81;100.00;63531.38;5004777;28;20242;-77
2022/06/13 01:43:50;;;;;;;5.07;4.68;;;;;;;14.78;100.00;63523.16;5004509;28;20466;-76
2022/06/13 01:46:25;;;;;;;7.65;4.70;;;;;;;14.78;100.00;63525.19;5004940;28;20226;-77
2022/06/13 01:49:04;;;;;;;6.57;5.30;;;;;;;14.75;100.00;63524.63;5004791;28;20194;-76
2022/06/13 01:51:38;;;;;;;6.13;5.53;;;;;;;14.73;100.00;63520.53;5004960;28;20222;-76
2022/06/13 01:54:20;;;;;;;5.32;4.78;;;;;;;14.76;100.00;63521.06;5006471;28;20263;-76
2022/06/13 01:56:56;;;;;;;6.47;4.97;;;;;;;14.70;100.00;63519.94;5006716;28;20195;-75
2022/06/13 01:59:31;;;;;;;5.25;4.90;;;;;;;14.70;100.00;63517.38;5006556;28;20223;-75
2022/06/13 02:02:05;;;;;;;6.40;5.25;;;;;;;14.79;100.00;63524.19;5004891;28;20199;-75
2022/06/13 02:04:38;;;;;;;5.70;5.25;;;;;;;14.82;100.00;63527.28;5004819;28;20254;-76
2022/06/13 02:07:12;;;;;;;5.03;4.63;;;;;;;14.77;100.00;63526.72;5004745;28;20188;-75
2022/06/13 02:09:42;;;;;;;5.10;4.70;;;;;;;14.81;100.00;63525.72;5004781;28;20215;-77
2022/06/13 02:12:13;;;;;;;5.80;5.30;;;;;;;14.85;100.00;63530.41;5004653;28;20234;-76
2022/06/13 02:14:45;;;;;;;4.85;4.55;;;;;;;14.83;100.00;63530.91;5004675;28;20399;-75
2022/06/13 02:17:14;;;;;;;8.13;4.80;;;;;;;14.80;100.00;63527.78;5004975;28;20201;-78
2022/06/13 02:19:47;;;;;;;5.68;5.25;;;;;;;14.80;100.00;63525.22;5004464;28;20219;-76
2022/06/13 02:22:19;;;;;;;7.18;5.35;;;;;;;14.83;100.00;63530.38;5004109;28;20533;-76
2022/06/13 02:24:51;;;;;;;5.35;4.90;;;;;;;14.77;100.00;63529.28;5003502;28;20548;-76
2022/06/13 02:27:22;;;;;;;7.00;4.80;;;;;;;14.76;100.00;63528.22;5003785;28;20195;-76
2022/06/13 02:29:55;;;;;;;4.72;4.43;;;;;;;14.78;100.00;63527.75;5004365;28;20219;-76
2022/06/13 02:32:28;;;;;;;5.10;4.70;;;;;;;14.72;100.00;63524.09;5003816;28;20591;-75
2022/06/13 02:35:02;;;;;;;5.70;4.93;;;;;;;14.74;100.00;63521.03;5003580;28;20291;-75
2022/06/13 02:37:35;;;;;;;5.10;4.80;;;;;;;14.74;100.00;63523.59;5003817;28;20559;-76
2022/06/13 02:40:06;;;;;;;5.28;4.88;;;;;;;14.70;100.00;63517.38;5004147;28;20223;-76
2022/06/13 02:42:40;;;;;;;5.00;4.47;;;;;;;14.66;100.00;63515.81;5004203;28;20188;-76
2022/06/13 02:45:13;;;;;;;6.95;4.50;;;;;;;14.68;100.00;63514.81;5004445;28;20235;-75
2022/06/13 02:47:44;;;;;;;5.88;4.88;;;;;;;14.66;100.00;63512.72;5004205;28;20213;-76
2022/06/13 02:50:17;;;;;;;5.10;4.53;;;;;;;14.58;100.00;63512.59;5003378;28;20223;-76
2022/06/13 02:52:50;;;;;;;6.57;5.30;;;;;;;14.69;100.00;63516.34;5003612;28;20187;-76
2022/06/13 02:55:19;;;;;;;6.18;4.90;;;;;;;14.64;100.00;63508.59;5003858;28;20223;-76
2022/06/13 02:58:01;;;;;;;5.85;5.32;;;;;;;14.74;100.00;63521.53;5004340;28;20206;-75
2022/06/13 03:00:44;;;;;;;5.13;4.68;;;;;;;14.78;100.00;63528.28;5009236;28;20219;-76
2022/06/13 03:03:17;;;;;;;5.65;5.15;;;;;;;14.74;100.00;63516.41;5014738;28;20221;-76
2022/06/13 03:05:56;;;;;;;5.18;4.68;;;;;;;14.83;100.00;63527.81;5012648;28;20250;-77
2022/06/13 03:08:33;;;;;;;27.17;21.90;;;;;;;14.86;100.00;63536.56;5004137;28;20271;-76
2022/06/13 03:11:07;;;;;;;53.08;38.53;;;;;;;14.94;100.00;63539.25;5014648;28;20226;-76
2022/06/13 03:13:42;;;;;;;19.50;12.20;;;;;;;14.98;100.00;63540.81;5024822;28;20395;-76
2022/06/13 03:16:17;;;;;;;23.33;18.90;;;;;;;15.05;100.00;63558.34;5027441;28;20665;-76
2022/06/13 03:18:48;;;;;;;5.80;5.28;;;;;;;15.03;100.00;63549.13;5029606;28;20232;-76
2022/06/13 03:21:24;;;;;;;4.53;4.13;;;;;;;15.09;100.00;63557.41;5027262;28;20274;-75
2022/06/13 03:23:56;;;;;;;4.93;4.63;;;;;;;15.03;100.00;63551.16;5023655;28;20300;-76
2022/06/13 03:26:29;;;;;;;6.65;4.90;;;;;;;15.10;100.00;63555.84;5023233;28;20213;-76
2022/06/13 03:29:02;;;;;;;6.13;5.65;;;;;;;15.12;100.00;63557.44;5023507;28;20202;-75
2022/06/13 03:31:34;;;;;;;6.45;4.88;;;;;;;15.24;100.00;63569.91;5023832;28;20204;-76
2022/06/13 03:34:11;;;;;;;5.90;5.32;;;;;;;15.24;100.00;63570.41;5024161;28;20213;-76
2022/06/13 03:36:44;;;;;;;4.45;4.25;;;;;;;15.29;100.00;63573.03;5027408;28;20216;-75
2022/06/13 03:39:17;;;;;;;4.97;4.65;;;;;;;15.36;100.00;63582.88;5027888;28;20229;-76
2022/06/13 03:41:48;;;;;;;9.98;8.23;;;;;;;15.43;100.00;63595.31;5028112;28;20233;-75
2022/06/13 03:44:19;;;;;;;185.32;122.60;;;;;;;15.51;100.00;63600.56;5026791;28;20233;-76
2022/06/13 03:46:52;;;;;;;26.15;20.23;;;;;;;15.65;100.00;63615.59;5026764;28;20202;-76
2022/06/13 03:49:25;;;;;;;12.75;11.15;;;;;;;15.76;100.00;63624.50;5026728;28;20229;-76
2022/06/13 03:51:55;;;;;;;5.47;5.07;;;;;;;15.87;100.00;63635.94;5026781;28;20187;-76
2022/06/13 03:54:28;;;;;;;6.03;5.57;;;;;;;15.97;100.00;63646.31;5026869;28;20233;-75
2022/06/13 03:57:07;;;;;;;6.10;5.50;;;;;;;16.14;100.00;63666.03;5026341;28;20280;-75
2022/06/13 03:59:41;;;;;;;8.38;4.95;;;;;;;16.20;100.00;63675.38;5026062;28;20289;-76
2022/06/13 04:02:12;;;;;;;5.70;5.20;;;;;;;16.28;100.00;63678.03;5026650;28;20197;-77
2022/06/13 04:04:42;;;;;;;5.68;5.18;;;;;;;16.40;100.00;63692.56;5026261;28;20381;-76
2022/06/13 04:07:10;;;;;;;7.57;5.40;;;;;;;16.34;100.00;63683.78;5026302;28;20365;-76
2022/06/13 04:09:42;;;;;;;6.97;6.30;;;;;;;16.26;100.00;63678.53;5026477;28;20218;-77
2022/06/13 04:12:29;;;;;;;5.63;5.13;;;;;;;16.47;100.00;63697.31;5007029;28;20186;-76
2022/06/13 04:15:20;;;;;;;6.57;5.68;;;;;;;16.61;100.00;63714.44;5006426;28;20225;-76
2022/06/13 04:17:55;;;;;;;6.00;5.55;;;;;;;16.59;100.00;63712.88;5006588;28;20202;-76
2022/06/13 04:20:30;;;;;;;6.47;5.78;;;;;;;16.63;100.00;63719.09;5006915;28;20257;-76
2022/06/13 04:23:11;;;;;;;6.03;5.63;;;;;;;16.71;100.00;63727.94;5006819;28;20190;-76
2022/06/13 04:25:44;;;;;;;6.70;6.10;;;;;;;16.91;100.00;63743.59;5006217;28;20238;-77
2022/06/13 04:28:17;;;;;;;6.55;5.95;;;;;;;16.94;100.00;63748.78;5006609;28;20191;-77
2022/06/13 04:30:46;;;;;;;6.32;5.75;;;;;;;17.01;100.00;63758.66;5006291;28;20222;-77
2022/06/13 04:33:17;;;;;;;9.25;6.35;;;;;;;17.16;100.00;63774.25;5006292;28;20254;-75
2022/06/13 04:35:46;;;;;;;6.45;5.85;;;;;;;17.09;100.00;63759.78;5006068;28;20585;-76
2022/06/13 04:38:18;;;;;;;7.28;6.57;;;;;;;17.12;100.00;63767.50;5005999;28;20223;-76
2022/06/13 04:40:49;;;;;;;6.88;6.15;;;;;;;17.09;100.00;63767.50;5006101;28;20219;-76
2022/06/13 04:43:19;;;;;;;6.10;5.60;;;;;;;17.24;100.00;63780.00;5006201;28;20578;-76
2022/06/13 04:45:51;;;;;;;5.65;5.15;;;;;;;17.22;100.00;63772.78;5005921;28;20292;-77
2022/06/13 04:48:19;;;;;;;5.80;5.03;;;;;;;17.16;100.00;63774.25;5005184;28;20241;-77
2022/06/13 04:50:54;;;;;;;6.45;5.85;;;;;;;17.25;100.00;63781.06;5005852;28;20215;-77
2022/06/13 04:53:25;;;;;;;6.72;6.13;;;;;;;17.30;100.00;63784.22;5006012;28;20214;-77
2022/06/13 04:55:54;;;;;;;6.88;6.28;;;;;;;17.46;100.00;63804.97;5005925;28;20261;-76
2022/06/13 04:58:26;;;;;;;7.85;7.15;;;;;;;17.59;100.00;63815.94;5005718;28;20205;-76
2022/06/13 05:01:00;;;;;;;7.00;6.28;;;;;;;17.76;100.00;63831.59;5005818;28;20293;-76
2022/06/13 05:03:30;;;;;;;6.57;5.97;;;;;;;17.75;100.00;63827.97;5005723;28;20198;-77
2022/06/13 05:06:02;;;;;;;8.52;7.72;;;;;;;17.82;100.00;63843.00;5006030;28;20222;-77
2022/06/13 05:08:35;;;;;;;8.70;7.25;;;;;;;18.09;100.00;63871.13;5005324;28;20419;-76
2022/06/13 05:11:08;;;;;;;11.20;6.85;;;;;;;18.11;100.00;63867.53;5016141;28;20225;-76
2022/06/13 05:13:35;;;;;;;7.35;6.75;;;;;;;18.21;100.00;63883.09;5025354;28;20198;-77
2022/06/13 05:16:17;;;;;;;4.78;3.75;;;;;;;18.09;100.00;63868.00;5025182;28;20405;-76
2022/06/13 05:18:57;;;;;;;4.90;4.35;;;;;;;18.25;100.00;63884.69;5024812;28;20298;-76
2022/06/13 05:21:37;;;;;;;3.72;3.53;;;;;;;18.24;100.00;63884.16;5025204;28;20202;-78
2022/06/13 05:24:30;;;;;;;3.65;3.45;;;;;;;18.42;100.00;63899.84;5024667;28;20280;-76
2022/06/13 05:26:57;;;;;;;3.80;3.50;;;;;;;18.36;100.00;63899.25;5024795;28;20196;-76
2022/06/13 05:29:25;;;;;;;2.95;2.75;;;;;;;18.46;100.00;63903.50;5024528;28;20226;-77
2022/06/13 05:31:53;;;;;;;3.20;3.00;;;;;;;18.37;100.00;63899.78;5024654;28;20217;-76
2022/06/13 05:34:31;;;;;;;4.75;2.75;;;;;;;18.34;100.00;63891.50;5024852;28;20472;-77
2022/06/13 05:36:58;;;;;;;3.60;3.40;;;;;;;18.35;100.00;63893.06;5024992;28;20190;-77
2022/06/13 05:39:27;;;;;;;4.75;3.13;;;;;;;18.30;100.00;63892.47;5024860;28;20629;-78
2022/06/13 05:41:54;;;;;;;5.30;4.60;;;;;;;18.49;100.00;63911.78;5024790;28;20202;-77
2022/06/13 05:44:21;;;;;;;5.38;4.90;;;;;;;18.57;100.00;63914.97;5025075;28;20340;-78
2022/06/13 05:46:48;;;;;;;6.25;5.53;;;;;;;18.58;100.00;63919.09;5025201;28;20206;-78
2022/06/13 05:49:17;;;;;;;7.75;6.95;;;;;;;18.64;100.00;63927.91;5026045;28;20265;-77
2022/06/13 05:51:44;;;;;;;11.40;7.22;;;;;;;18.68;100.00;63926.41;5028020;28;20198;-78
2022/06/13 05:54:11;;;;;;;9.43;8.45;;;;;;;18.61;100.00;63919.66;5028737;28;20222;-77
2022/06/13 05:56:40;;;;;;;8.38;7.57;;;;;;;18.62;100.00;63920.69;5028002;28;20198;-79
2022/06/13 05:59:07;;;;;;;7.15;6.47;;;;;;;18.78;100.00;63939.94;5028148;28;20221;-78
2022/06/13 06:01:36;;;;;;;11.90;9.18;;;;;;;18.85;100.00;63949.28;5026276;28;20194;-78
2022/06/13 06:04:03;;;;;;;14.45;9.32;;;;;;;18.87;100.00;63944.16;5025068;28;20265;-78
2022/06/13 06:06:32;;;;;;;11.32;8.60;;;;;;;19.04;100.00;63969.63;5026103;28;20256;-78
2022/06/13 06:09:00;;;;;;;9.23;7.13;;;;;;;18.93;100.00;63958.16;5026027;28;20252;-77
2022/06/13 06:11:30;;;;;;;8.93;8.07;;;;;;;19.13;100.00;63975.91;5013326;28;20195;-78
2022/06/13 06:13:59;;;;;;;10.07;7.95;;;;;;;18.88;100.00;63950.34;5009338;28;20218;-80
2022/06/13 06:16:28;;;;;;;12.13;7.65;;;;;;;19.10;100.00;63970.72;5005683;28;20380;-78
2022/06/13 06:18:56;;;;;;;9.57;7.45;;;;;;;19.29;100.00;63992.59;5006016;28;20269;-78
2022/06/13 06:21:23;;;;;;;8.95;7.30;;;;;;;19.35;100.00;64001.44;5006091;28;20199;-79
2022/06/13 06:23:50;;;;;;;8.43;6.80;;;;;;;19.27;100.00;63987.91;5010643;28;20377;-77
2022/06/13 06:26:20;;;;;;;7.43;6.35;;;;;;;19.18;100.00;63983.69;5010959;28;20234;-79
2022/06/13 06:28:47;;;;;;;7.20;6.57;;;;;;;19.07;100.00;63970.16;5008747;28;20254;-78
2022/06/13 06:31:16;;;;;;;9.35;5.85;;;;;;;19.20;100.00;63981.16;5007558;28;20194;-78
2022/06/13 06:33:43;;;;;;;7.50;6.20;;;;;;;19.40;100.00;63999.44;5007380;28;20229;-79
2022/06/13 06:36:12;;;;;;;6.47;5.88;;;;;;;19.63;100.00;64033.22;5006587;28;20221;-79
2022/06/13 06:38:39;;;;;;;6.40;5.80;;;;;;;19.72;100.00;64040.03;5006189;28;20388;-78
2022/06/13 06:41:06;;;;;;;6.70;6.00;;;;;;;19.54;100.00;64016.09;5006546;28;20261;-80
2022/06/13 06:43:33;;;;;;;7.00;6.05;;;;;;;19.53;100.00;64015.56;5007360;28;20198;-79
2022/06/13 06:46:00;;;;;;;6.60;5.95;;;;;;;19.51;100.00;64018.13;5007425;28;20414;-78
2022/06/13 06:48:29;;;;;;;4.93;4.63;;;;;;;19.52;100.00;64017.13;5005913;28;20203;-80
2022/06/13 06:50:56;;;;;;;5.80;4.50;;;;;;;19.67;100.00;64037.41;5006679;28;20438;-79
2022/06/13 06:53:25;;;;;;;4.53;4.30;;;;;;;19.60;100.00;64019.78;5008119;28;20202;-79
2022/06/13 07:01:21;;;;;;;4.65;4.28;;;;;;;20.00;100.00;64063.56;5006843;28;20193;-79
2022/06/13 07:03:49;;;;;;;4.00;3.75;;;;;;;20.11;100.00;64080.72;5007448;28;20302;-80
2022/06/13 07:06:17;;;;;;;3.85;3.65;;;;;;;20.27;100.00;64097.44;5006930;28;20234;-80
2022/06/13 07:08:44;;;;;;;4.13;3.78;;;;;;;20.37;100.00;64107.34;5007211;28;20271;-80
2022/06/13 07:14:01;;;;;;;4.47;4.07;;;;;;;20.37;100.00;64104.75;5007587;28;20189;-78
2022/06/13 07:16:29;;;;;;;6.40;4.10;;;;;;;20.56;100.00;64125.13;5007345;28;20202;-79
2022/06/13 07:18:57;;;;;;;4.68;4.28;;;;;;;20.67;100.00;64138.69;5006794;28;20221;-80
2022/06/13 07:21:24;;;;;;;5.07;4.63;;;;;;;20.83;100.00;64152.28;5011080;28;20197;-79
2022/06/13 07:23:51;;;;;;;4.22;3.92;;;;;;;20.71;100.00;64140.25;5010649;28;20191;-78
2022/06/13 07:26:19;;;;;;;4.50;4.20;;;;;;;20.75;100.00;64143.91;5011487;28;20226;-79
2022/06/13 07:28:46;;;;;;;3.95;3.72;;;;;;;20.59;98.73;64130.84;5011544;28;20203;-79
2022/06/13 07:31:19;;;;;;;3.05;2.95;;;;;;;20.56;95.11;64127.72;5006641;28;20260;-80
2022/06/13 07:33:46;;;;;;;3.60;3.40;;;;;;;20.65;100.00;64131.41;5004908;28;20218;-81
2022/06/13 07:36:17;;;;;;;6.25;3.63;;;;;;;20.79;100.00;64151.19;5008386;28;20278;-80
2022/06/13 07:38:44;;;;;;;3.75;3.50;;;;;;;20.69;99.01;64140.78;5015239;28;20213;-82
2022/06/13 07:41:18;;;;;;;7.15;3.92;;;;;;;20.79;100.00;64153.78;5007483;28;20451;-81
2022/06/13 07:43:46;;;;;;;4.35;4.05;;;;;;;20.79;100.00;64148.63;5007084;28;20233;-81
2022/06/13 07:46:13;;;;;;;5.38;4.60;;;;;;;20.76;100.00;64145.47;5007538;28;20238;-81
2022/06/13 07:48:40;;;;;;;4.57;4.28;;;;;;;20.92;100.00;64162.19;5007161;28;20250;-82
2022/06/13 07:51:07;;;;;;;4.40;4.10;;;;;;;20.95;100.00;64167.38;5006689;28;20223;-81
2022/06/13 07:53:36;;;;;;;5.10;4.60;;;;;;;21.02;100.00;64169.53;5007483;28;20262;-81
2022/06/13 07:56:03;;;;;;;8.15;4.43;;;;;;;20.98;100.00;64171.06;5006663;28;20238;-83
2022/06/13 07:58:34;;;;;;;5.88;4.50;;;;;;;21.11;100.00;64184.09;5006193;28;20266;-82
2022/06/13 08:01:01;;;;;;;4.80;4.35;;;;;;;20.96;97.90;64166.38;5008094;28;20227;-81
2022/06/13 08:03:30;;;;;;;4.45;4.07;;;;;;;21.04;99.96;64174.72;5006442;28;20258;-80
2022/06/13 08:05:58;;;;;;;7.40;4.63;;;;;;;21.22;99.37;64193.00;5007317;28;20242;-82
2022/06/13 08:08:26;;;;;;;6.18;4.45;;;;;;;21.20;97.48;64190.91;5006736;28;20465;-81
2022/06/13 08:10:58;;;;;;;6.03;4.78;;;;;;;21.38;100.00;64207.13;5016588;28;20491;-81
2022/06/13 08:13:26;;;;;;;5.18;3.92;;;;;;;21.56;94.85;64234.22;5030587;28;20202;-81
2022/06/13 08:15:53;;;;;;;6.30;4.30;;;;;;;21.81;98.01;64254.66;5029602;28;20233;-81
2022/06/13 08:18:20;;;;;;;4.72;4.32;;;;;;;21.87;96.31;64260.94;5026392;28;20514;-81
2022/06/13 08:20:47;;;;;;;4.45;4.10;;;;;;;21.99;94.65;64273.47;5026326;28;20249;-82
2022/06/13 08:23:17;;;;;;;5.43;4.28;;;;;;;21.75;91.48;64250.97;5026587;28;20266;-82
2022/06/13 08:25:44;;;;;;;6.75;4.47;;;;;;;22.05;93.22;64277.16;5029847;28;20245;-82
2022/06/13 08:28:14;;;;;;;4.35;4.15;;;;;;;22.25;93.43;64295.44;5034897;28;20236;-80
2022/06/13 08:30:49;;;;;;;4.70;4.30;;;;;;;22.25;92.81;64297.50;5032711;28;20221;-81
2022/06/13 08:33:17;;;;;;;4.70;4.40;;;;;;;22.34;90.36;64312.66;5033823;28;20196;-82
2022/06/13 08:35:44;;;;;;;5.60;5.20;;;;;;;22.57;93.25;64331.50;5032747;28;20218;-80
2022/06/13 08:38:12;;;;;;;6.63;4.40;;;;;;;22.78;88.19;64356.06;5031743;28;20509;-82
2022/06/13 08:40:46;;;;;;;4.82;4.53;;;;;;;23.08;85.41;64383.78;5031083;28;20218;-81
2022/06/13 08:43:43;;;;;;;4.47;4.10;;;;;;;23.37;83.20;64419.34;5032580;28;20189;-80
2022/06/13 08:46:17;;;;;;;4.07;3.88;;;;;;;23.56;81.46;64437.13;5032365;28;20238;-82
2022/06/13 08:48:45;;;;;;;4.90;4.38;;;;;;;23.43;81.43;64428.75;5034329;28;20198;-80
2022/06/13 08:51:17;;;;;;;4.00;3.80;;;;;;;23.83;83.11;64462.28;5035993;28;20218;-80
2022/06/13 08:53:53;;;;;;;4.65;4.32;;;;;;;23.94;83.06;64476.38;5036475;28;20205;-79
2022/06/13 08:56:23;;;;;;;4.65;4.32;;;;;;;24.48;75.93;64535.00;5034822;28;20194;-83
2022/06/13 08:58:56;;;;;;;5.47;4.72;;;;;;;24.71;72.83;64554.41;5028872;28;20372;-83
2022/06/13 09:01:31;;;;;;;5.55;4.13;;;;;;;24.92;71.30;64575.88;5029593;28;20198;-82
2022/06/13 09:04:05;;;;;;;7.78;4.50;;;;;;;24.15;71.61;64500.97;5030557;28;20197;-82
2022/06/13 09:06:40;;;;;;;7.38;4.68;;;;;;;23.83;76.15;64464.88;5027972;28;20224;-82
2022/06/13 09:09:13;;;;;;;5.05;4.70;;;;;;;23.96;74.91;64479.00;5028496;28;20208;-83
2022/06/13 09:11:47;;;;;;;7.85;5.28;;;;;;;24.02;76.88;64484.25;5012153;28;20191;-81
2022/06/13 09:14:21;;;;;;;6.32;5.18;;;;;;;24.12;72.39;64497.31;5008695;28;20226;-82
2022/06/13 09:16:57;;;;;;;5.85;5.10;;;;;;;23.76;75.01;64452.34;5010158;28;20190;-82
2022/06/13 09:19:30;;;;;;;5.90;5.00;;;;;;;24.11;74.11;64493.69;5014691;28;20218;-80
2022/06/13 09:22:05;;;;;;;5.07;4.13;;;;;;;24.25;70.97;64510.91;5013672;28;20195;-82
2022/06/13 09:24:40;;;;;;;4.55;3.90;;;;;;;24.46;74.39;64533.44;5017694;28;20281;-82
2022/06/13 09:27:13;;;;;;;4.80;4.50;;;;;;;24.59;70.05;64547.03;5012601;28;20252;-83
2022/06/13 09:29:50;;;;;;;4.75;4.45;;;;;;;24.27;66.91;64515.63;5016028;28;20274;-83
2022/06/13 09:32:19;;;;;;;5.22;4.82;;;;;;;23.53;72.14;64438.69;5018232;28;20194;-84
2022/06/13 09:34:49;;;;;;;5.60;5.03;;;;;;;23.58;73.79;64434.03;5015308;28;20441;-83
2022/06/13 09:37:24;;;;;;;6.18;5.25;;;;;;;23.56;79.68;64441.81;5012685;28;20202;-83
2022/06/13 09:39:51;;;;;;;6.93;4.90;;;;;;;23.95;75.97;64477.44;5008313;28;20320;-83
2022/06/13 09:42:30;;;;;;;5.22;4.82;;;;;;;23.78;70.12;64460.16;5009477;28;20217;-82
2022/06/13 09:45:18;;;;;;;4.75;4.35;;;;;;;23.60;73.04;64440.81;5009337;28;20245;-82
2022/06/13 09:47:59;;;;;;;5.50;5.00;;;;;;;23.37;77.79;64411.53;5009870;28;20583;-82
2022/06/13 09:50:33;;;;;;;4.65;4.20;;;;;;;23.50;74.42;64430.88;5008641;28;20266;-83
2022/06/13 09:53:07;;;;;;;5.70;5.32;;;;;;;23.83;71.20;64462.78;5009020;28;20287;-83
2022/06/13 09:55:41;;;;;;;6.07;5.57;;;;;;;23.86;72.64;64468.00;5008743;28;20253;-81
2022/06/13 09:58:16;;;;;;;5.40;4.97;;;;;;;24.08;72.30;64488.44;5008138;28;20213;-82
2022/06/13 10:00:50;;;;;;;5.22;4.72;;;;;;;24.00;69.41;64480.59;5008706;28;20229;-82
2022/06/13 10:03:27;;;;;;;6.55;5.32;;;;;;;24.02;70.27;64479.06;5008474;28;20202;-82
2022/06/13 10:06:03;;;;;;;6.80;5.80;;;;;;;24.02;71.52;64484.25;5008258;28;20299;-82
2022/06/13 10:08:56;;;;;;;5.03;4.72;;;;;;;24.17;72.02;64497.88;5008192;28;20198;-83
2022/06/13 10:11:32;;;;;;;5.25;4.40;;;;;;;24.23;75.36;64508.84;5008349;28;20210;-83
2022/06/13 10:14:31;;;;;;;4.93;4.38;;;;;;;24.49;68.44;64528.25;5008500;28;20217;-83
2022/06/13 10:17:14;;;;;;;6.80;4.82;;;;;;;24.33;66.25;64522.44;5025642;28;20203;-82
2022/06/13 10:19:54;;;;;;;5.95;5.35;;;;;;;24.58;68.30;64545.47;5015808;28;20226;-81
2022/06/13 10:22:33;;;;;;;5.97;5.38;;;;;;;24.69;60.48;64551.81;5015734;28;20186;-83
2022/06/13 10:25:11;;;;;;;4.95;4.60;;;;;;;24.73;62.40;64561.22;5016249;28;20218;-83
2022/06/13 10:27:48;;;;;;;5.88;5.43;;;;;;;24.87;57.61;64571.19;5010544;28;20432;-82
2022/06/13 10:30:21;;;;;;;5.45;5.00;;;;;;;24.79;58.77;64564.88;5008941;28;20597;-82
2022/06/13 10:33:05;;;;;;;5.40;5.00;;;;;;;25.14;64.83;64604.66;5010166;28;20187;-85
2022/06/13 10:35:45;;;;;;;4.93;4.53;;;;;;;25.20;67.60;64607.28;5010531;28;20250;-83
2022/06/13 10:38:32;;;;;;;5.50;4.70;;;;;;;25.51;65.98;64642.94;5010575;28;20203;-83
2022/06/13 10:40:59;;;;;;;4.93;4.57;;;;;;;25.53;63.38;64641.88;5010656;28;20218;-84
2022/06/13 10:43:27;;;;;;;5.22;4.88;;;;;;;25.32;62.57;64617.78;5009279;28;20199;-83
2022/06/13 10:45:54;;;;;;;6.63;6.03;;;;;;;25.29;63.52;64614.66;5008980;28;20253;-83
2022/06/13 10:48:28;;;;;;;5.32;4.93;;;;;;;25.38;63.90;64623.56;5009222;28;20199;-83
2022/06/13 10:50:57;;;;;;;5.03;4.63;;;;;;;25.33;65.13;64624.06;5010936;28;20218;-84
2022/06/13 10:53:28;;;;;;;5.43;5.03;;;;;;;25.51;64.72;64637.19;5013374;28;20209;-84
2022/06/13 10:55:58;;;;;;;8.27;5.47;;;;;;;25.63;62.06;64657.56;5013498;28;20230;-82
2022/06/13 10:58:30;;;;;;;5.55;5.18;;;;;;;25.77;56.90;64661.81;5014019;28;20204;-84
2022/06/13 11:01:08;;;;;;;5.63;5.10;;;;;;;25.38;60.49;64628.78;5013555;28;20229;-84
2022/06/13 11:03:40;;;;;;;6.28;5.78;;;;;;;25.63;60.79;64649.75;5010347;28;20271;-83
2022/06/13 11:06:15;;;;;;;5.72;5.22;;;;;;;25.58;60.49;64650.25;5008864;28;20234;-82
2022/06/13 11:08:42;;;;;;;5.80;5.28;;;;;;;25.81;63.33;64673.84;5012018;28;20205;-83
2022/06/13 11:11:14;;;;;;;6.25;5.70;;;;;;;26.15;61.52;64707.41;5008323;28;20253;-84
2022/06/13 11:13:42;;;;;;;9.10;5.50;;;;;;;26.36;58.29;64728.91;5007015;28;20499;-84
2022/06/13 11:24:48;;;;;;;6.13;5.53;;;;;;;25.33;62.51;64620.91;5006336;28;20257;-84
2022/06/13 11:27:41;;;;;;;5.88;5.47;;;;;;;25.24;59.72;64611.50;5010292;28;20234;-84
2022/06/13 11:30:36;;;;;;;5.40;5.03;;;;;;;25.37;57.69;64623.03;5008598;28;20265;-83
2022/06/13 11:33:15;;;;;;;6.38;5.88;;;;;;;25.30;58.88;64620.91;5008679;28;20195;-84
2022/06/13 11:35:46;;;;;;;14.25;6.70;;;;;;;25.28;58.35;64615.69;5008411;28;20215;-84
2022/06/13 11:38:17;;;;;;;5.90;5.40;;;;;;;25.14;59.01;64604.16;5008326;28;20388;-84
2022/06/13 11:40:47;;;;;;;6.15;5.65;;;;;;;25.54;57.77;64640.34;5007348;28;20394;-83
2022/06/13 11:43:23;;;;;;;6.25;5.72;;;;;;;25.73;58.57;64665.97;5008054;28;20538;-85
2022/06/13 11:46:01;;;;;;;5.95;5.55;;;;;;;25.75;56.45;64667.53;5011606;28;20445;-84
2022/06/13 11:48:30;;;;;;;5.65;5.20;;;;;;;26.05;57.33;64699.53;5014846;28;20222;-84
2022/06/13 11:51:02;;;;;;;7.85;6.00;;;;;;;26.44;56.43;64736.78;5015917;28;20241;-84
2022/06/13 11:53:39;;;;;;;8.88;5.35;;;;;;;26.88;52.58;64777.69;5016414;28;20199;-83
2022/06/13 11:56:11;;;;;;;6.32;5.80;;;;;;;26.62;50.30;64760.88;5008322;28;20215;-84
2022/06/13 11:58:42;;;;;;;6.05;5.65;;;;;;;27.03;50.38;64804.41;5011200;28;20242;-83
2022/06/13 12:01:20;;;;;;;6.65;6.05;;;;;;;27.12;49.69;64811.25;5012634;28;20214;-86
2022/06/13 12:04:01;;;;;;;6.10;5.63;;;;;;;27.15;48.42;64817.00;5012280;28;20487;-84
2022/06/13 12:06:35;;;;;;;5.53;5.13;;;;;;;26.59;51.32;64755.66;5012255;28;20249;-85
2022/06/13 12:09:07;;;;;;;5.88;5.38;;;;;;;26.71;51.41;64765.09;5012104;28;20195;-85
2022/06/13 12:11:45;;;;;;;6.30;5.70;;;;;;;26.62;50.18;64764.00;5027629;28;20218;-84